CDT,Max TemperatureF,Mean TemperatureF,Min TemperatureF,Max Dew PointF,MeanDew PointF,Min DewpointF,Max Humidity, Mean Humidity, Min Humidity, Max Sea Level PressureIn, Mean Sea Level PressureIn, Min Sea Level PressureIn, Max VisibilityMiles, Mean VisibilityMiles, Min VisibilityMiles, Max Wind SpeedMPH, Mean Wind SpeedMPH, Max Gust SpeedMPH,PrecipitationIn, CloudCover, Events, WindDirDegrees
2013-9-1,93,85,79,77,75,73,84,71,54,29.92,29.89,29.84,10,10,10,16,7,20,0.00,2,,161
2013-9-2,93,87,81,77,75,70,88,70,55,29.96,29.91,29.86,10,10,6,16,6,21,0.00,2,Thunderstorm,165
2013-9-3,93,84,77,77,75,72,94,75,54,30.01,29.95,29.90,10,10,10,14,4,17,0.00,1,,99
2013-9-4,93,84,75,77,74,69,91,71,45,30.04,29.98,29.94,10,10,10,13,5,,0.00,0,,132
2013-9-5,93,86,82,77,75,73,85,70,55,30.05,30.01,29.98,10,10,10,16,9,22,0.01,1,Rain,103
2013-9-6,91,84,79,76,75,74,90,71,59,30.06,30.00,29.95,10,10,10,15,8,,0.00,2,,94
2013-9-7,90,83,77,77,75,73,94,80,63,30.01,29.95,29.90,10,9,1,14,7,18,0.31,3,Rain,133
2013-9-8,84,80,75,76,74,72,100,85,74,29.97,29.91,29.88,10,8,1,24,8,30,0.54,4,Rain-Thunderstorm,111
2013-9-9,88,82,75,76,74,73,97,80,67,29.96,29.91,29.88,10,8,1,23,13,37,0.64,4,Rain-Thunderstorm,131
2013-9-10,91,86,81,76,75,74,79,73,61,30.01,29.97,29.92,10,10,10,16,13,,0.00,1,,120
2013-9-11,91,84,78,77,76,74,90,76,63,30.05,30.00,29.97,10,9,2,16,9,22,0.18,3,Rain,104
2013-9-12,90,84,78,78,75,71,90,75,55,30.01,29.96,29.90,10,10,8,15,9,,0.01,1,Rain,75
2013-9-13,91,83,75,76,74,70,94,74,55,29.93,29.87,29.81,10,10,9,16,9,,0.01,0,Rain,65
2013-9-14,91,85,79,77,75,73,90,73,55,29.89,29.85,29.81,10,10,10,17,10,24,0.00,0,,79
2013-9-15,90,84,79,77,76,73,90,76,63,29.94,29.90,29.85,10,9,2,21,14,40,0.06,2,Rain,90
2013-9-16,86,80,75,79,76,72,94,83,74,29.97,29.93,29.89,10,7,1,24,14,43,0.60,4,Rain,93
2013-9-17,90,84,78,79,77,74,94,81,65,30.01,29.96,29.91,10,9,2,16,11,21,0.26,2,Rain,102
2013-9-18,88,84,80,78,76,75,88,78,67,29.97,29.92,29.88,10,9,2,16,11,31,0.06,1,Rain,108
2013-9-19,90,85,81,78,77,76,85,78,67,29.91,29.86,29.81,10,10,10,16,10,21,0.03,1,,124
2013-9-20,88,83,78,81,78,75,94,85,75,29.83,29.77,29.69,10,9,2,15,11,24,0.15,5,Rain-Thunderstorm,159
2013-9-21,78,76,73,75,71,66,100,86,73,29.83,29.77,29.72,10,10,5,22,12,30,0.09,8,Rain,1
2013-9-22,87,78,70,70,64,55,87,66,35,29.83,29.78,29.73,10,10,10,17,10,23,0.00,1,,13
2013-9-23,87,78,72,75,69,64,91,76,63,29.80,29.76,29.73,10,10,10,15,7,21,0.00,5,,2
2013-9-24,95,84,75,75,72,66,94,73,40,29.88,29.83,29.79,10,10,9,8,5,,0.00,0,,298
2013-9-25,91,82,72,75,70,62,96,70,37,29.89,29.83,29.79,10,9,2,9,5,,0.00,0,,174
2013-9-26,90,82,75,77,74,72,94,75,61,29.88,29.84,29.81,10,10,9,14,7,20,0.00,2,,139
2013-9-27,90,86,82,81,78,75,89,82,70,29.91,29.86,29.83,10,10,7,18,12,26,0.02,3,Rain-Thunderstorm,138
2013-9-28,91,86,82,79,78,76,89,78,65,29.96,29.90,29.86,10,10,9,18,12,23,0.00,2,,150
2013-9-29,90,82,75,76,75,73,100,79,61,29.99,29.93,29.87,10,10,8,10,7,21,0.05,3,Rain-Thunderstorm,262
2013-9-30,87,80,73,77,74,71,100,86,69,29.92,29.87,29.80,10,9,2,10,3,,0.06,3,Rain,61